Strandburg, SD (57265)

8:38 PM CDT on October 01, 2014 (GMT -0500)
Turkey Ridge | Change Station
CLOSE
Current Station
Personal Weather Station
Location: Watertown, SD
Elevation: 1795 ft
Nearby Weather Stations

Elev 1795 ft 44.91 °N, 97.08 °W | Updated 8 minutes ago

Clear
Clear
58.1 °F
Feels Like 58.1 °F
N
2.0
Wind Variable Wind from North
Gusts 6.0 mph

Today
High -- | Low -- °F
--% Chance of Precip.
Yesterday
High -- | Low -- °F
Precip. -- in
7:25 AM 7:07 PM
First Quarter, 53% visible
Pressure 29.80 in
Visibility 10.0 miles
Clouds Clear
Dew Point 51 °F
Humidity 76%
Rainfall 0.00 in
Snow Depth 1 in
UV 0 out of 12
Pollen 4.30 out of 12
Air Quality Not available.
Flu Activity Not available.
METAR KATY 020053Z AUTO 33006KT 10SM CLR 14/10 A2980 RMK AO2 SLP091 T01440100

More Conditions Fewer Conditions

Pressure 29.80 in
Visibility 10.0 miles
Clouds Clear
Dew Point 51 °F
Humidity 76%
Rainfall 0.00 in
Snow Depth 1 in
UV 0 out of 12
Pollen 4.30 out of 12
Air Quality Not available.
Flu Activity Not available.
METAR KATY 020053Z AUTO 33006KT 10SM CLR 14/10 A2980 RMK AO2 SLP091 T01440100

More Conditions Fewer Conditions

10-Day Weather Forecast

Almanac

Astronomy

Oct. 01, 2014 Rise Set
Actual Time 7:25 AM CDT 7:07 PM CDT
Civil Twilight 6:56 AM CDT 7:36 PM CDT
Nautical Twilight 6:21 AM CDT 8:10 PM CDT
Astronomical Twilight 5:47 AM CDT 8:45 PM CDT
Moon 2:38 PM CDT (10/1) No Moon Set
Length of Visible Light 12h 40m
Length of Day
11h 42m
Tomorrow will be 3m 7s shorter.
First Quarter, 53% of the Moon is Illuminated
Today
First Quarter
Oct 8
Full
Oct 15
Last Quarter
Oct 23
New
Oct 30
First Quarter

Today's Extremes

State Highs State Lows

Community

WunderPhotos

Upload Photos

1,758,112 photos uploaded!

WunderBlogs® & News

Nearby

Snow Depth

Station Depth Elevation
North Rapid Creek 0 in 6130 ft
Blind Park 1 in 6890 ft

Earthquake Activity

City Distance Mag. Time & Date
No recent earthquake activity has been reported nearby.
Minimum magnitude displayed is 2.5.

Coastal Water Temperatures

Place Temperature
No Stations Reporting

Nearby Weather Stations